createdAt,value
2018-11-10T00:00:19.173Z,62.90
2018-11-10T00:02:48.292Z,62.40
2018-11-10T00:05:17.051Z,62.90
2018-11-10T00:07:45.505Z,60.70
2018-11-10T00:10:13.875Z,61.20
2018-11-10T00:12:42.387Z,62.70
2018-11-10T00:15:12.332Z,63.10
2018-11-10T00:17:40.694Z,62.80
2018-11-10T00:20:09.255Z,62.90
2018-11-10T00:22:38.572Z,62.80
2018-11-10T00:25:08.261Z,62.80
2018-11-10T00:27:36.597Z,62.90
2018-11-10T00:30:05.596Z,62.80
2018-11-10T00:32:33.984Z,63.30
2018-11-10T00:35:02.356Z,63.40
2018-11-10T00:37:30.707Z,63.10
2018-11-10T00:39:59.101Z,62.90
2018-11-10T00:42:27.478Z,62.90
2018-11-10T00:44:55.851Z,63.00
2018-11-10T00:47:24.189Z,62.90
2018-11-10T00:49:52.621Z,62.50
2018-11-10T00:52:21.316Z,62.80
2018-11-10T00:54:49.690Z,62.30
2018-11-10T00:57:18.102Z,61.80
2018-11-10T00:59:46.490Z,61.80
2018-11-10T01:02:14.884Z,62.30
2018-11-10T01:04:43.288Z,61.50
2018-11-10T01:07:11.653Z,61.50
2018-11-10T01:09:40.064Z,61.70
2018-11-10T01:12:08.422Z,61.90
2018-11-10T01:14:36.778Z,61.90
2018-11-10T01:17:05.407Z,61.30
2018-11-10T01:19:33.775Z,61.20
2018-11-10T01:22:02.146Z,61.20
2018-11-10T01:24:30.477Z,61.10
2018-11-10T01:26:58.834Z,61.40
2018-11-10T01:29:27.198Z,61.40
2018-11-10T01:31:55.549Z,61.30
2018-11-10T01:34:23.921Z,61.30
2018-11-10T01:36:52.279Z,61.20
2018-11-10T01:39:20.650Z,60.50
2018-11-10T01:41:49.022Z,60.20
2018-11-10T01:44:17.354Z,59.50
2018-11-10T01:46:45.721Z,58.60
2018-11-10T01:49:14.084Z,58.10
2018-11-10T01:51:42.427Z,57.70
2018-11-10T01:54:10.790Z,57.70
2018-11-10T01:56:39.149Z,58.20
2018-11-10T01:59:07.527Z,57.20
2018-11-10T02:01:35.901Z,56.80
2018-11-10T02:04:04.292Z,56.30
2018-11-10T02:06:32.686Z,56.80
2018-11-10T02:09:01.017Z,56.20
2018-11-10T02:11:29.374Z,56.80
2018-11-10T02:13:57.752Z,56.60
2018-11-10T02:16:26.087Z,56.70
2018-11-10T02:18:54.414Z,57.00
2018-11-10T02:21:22.837Z,56.90
2018-11-10T02:23:51.330Z,56.90
2018-11-10T02:26:19.760Z,57.10
2018-11-10T02:28:48.188Z,57.10
2018-11-10T02:31:16.541Z,57.20
2018-11-10T02:33:45.007Z,56.40
2018-11-10T02:36:13.372Z,56.70
2018-11-10T02:38:41.786Z,56.10
2018-11-10T02:41:10.077Z,56.60
2018-11-10T02:43:38.438Z,57.20
2018-11-10T02:46:06.798Z,56.90
2018-11-10T02:48:35.158Z,57.50
2018-11-10T02:51:03.567Z,56.90
2018-11-10T02:53:31.884Z,56.80
2018-11-10T02:56:00.240Z,56.50
2018-11-10T02:58:28.580Z,56.90
2018-11-10T03:00:56.977Z,56.90
2018-11-10T03:03:25.328Z,56.90
2018-11-10T03:05:53.718Z,56.90
2018-11-10T03:08:22.093Z,57.10
2018-11-10T03:10:50.596Z,57.70
2018-11-10T03:13:18.940Z,57.00
2018-11-10T03:15:47.276Z,56.10
2018-11-10T03:18:15.652Z,56.20
2018-11-10T03:20:44.002Z,56.90
2018-11-10T03:23:12.398Z,56.70
2018-11-10T03:25:40.760Z,56.90
2018-11-10T03:28:09.130Z,57.70
2018-11-10T03:30:37.445Z,58.00
2018-11-10T03:33:06.097Z,58.30
2018-11-10T03:35:34.448Z,58.90
2018-11-10T03:38:02.777Z,57.20
2018-11-10T03:40:31.142Z,57.50
2018-11-10T03:42:59.488Z,58.10
2018-11-10T03:45:27.868Z,58.00
2018-11-10T03:47:56.232Z,58.00
2018-11-10T03:50:24.599Z,57.30
2018-11-10T03:52:53.241Z,57.40
2018-11-10T03:55:21.601Z,57.60
2018-11-10T03:57:49.963Z,58.00
2018-11-10T04:00:18.320Z,57.90
2018-11-10T04:02:46.942Z,58.00
2018-11-10T04:05:15.758Z,58.10
2018-11-10T04:07:45.064Z,57.80
2018-11-10T04:10:14.056Z,57.00
2018-11-10T04:12:42.455Z,57.20
2018-11-10T04:15:10.879Z,56.80
2018-11-10T04:17:39.256Z,56.50
2018-11-10T04:20:08.984Z,57.10
2018-11-10T04:22:38.178Z,56.80
2018-11-10T04:25:08.886Z,57.20
2018-11-10T04:27:37.278Z,56.90
2018-11-10T04:30:06.952Z,56.10
2018-11-10T04:32:36.086Z,55.90
2018-11-10T04:35:04.825Z,55.80
2018-11-10T04:37:33.184Z,56.10
2018-11-10T04:40:01.522Z,56.90
2018-11-10T04:42:29.891Z,56.70
2018-11-10T04:44:58.226Z,56.20
2018-11-10T04:47:26.602Z,55.80
2018-11-10T04:49:55.094Z,56.00
2018-11-10T04:52:23.344Z,55.80
2018-11-10T04:54:51.682Z,56.10
2018-11-10T04:57:20.052Z,55.20
2018-11-10T04:59:48.410Z,54.80
2018-11-10T05:02:16.748Z,53.80
2018-11-10T05:04:45.128Z,53.90
2018-11-10T05:07:13.488Z,53.90
2018-11-10T05:09:41.832Z,52.80
2018-11-10T05:12:10.217Z,54.00
2018-11-10T05:14:38.569Z,53.20
2018-11-10T05:17:06.949Z,52.70
2018-11-10T05:19:35.328Z,52.40
2018-11-10T05:22:03.708Z,52.80
2018-11-10T05:24:32.058Z,52.20
2018-11-10T05:27:00.415Z,52.10
2018-11-10T05:29:28.731Z,52.90
2018-11-10T05:31:57.085Z,52.80
2018-11-10T05:34:25.469Z,52.10
2018-11-10T05:36:53.852Z,52.00
2018-11-10T05:39:22.194Z,51.70
2018-11-10T05:41:50.535Z,52.40
2018-11-10T05:44:18.926Z,54.20
2018-11-10T05:46:47.255Z,54.20
2018-11-10T05:49:15.935Z,56.50
2018-11-10T05:51:44.362Z,58.30
2018-11-10T05:54:12.725Z,58.60
2018-11-10T05:56:41.075Z,59.30
2018-11-10T05:59:09.492Z,58.60
2018-11-10T06:01:37.861Z,59.70
2018-11-10T06:04:06.233Z,60.50
2018-11-10T06:06:34.567Z,60.60
2018-11-10T06:09:03.008Z,60.50
2018-11-10T06:11:31.337Z,60.80
2018-11-10T06:13:59.725Z,62.70
2018-11-10T06:16:28.104Z,63.40
2018-11-10T06:18:56.555Z,63.40
2018-11-10T06:21:24.787Z,64.00
2018-11-10T06:23:53.144Z,63.20
2018-11-10T06:26:21.533Z,63.30
2018-11-10T06:28:49.852Z,63.30
2018-11-10T06:31:18.224Z,63.30
2018-11-10T06:33:46.604Z,63.90
2018-11-10T06:36:14.948Z,64.30
2018-11-10T06:38:43.322Z,64.40
2018-11-10T06:41:11.699Z,64.20
2018-11-10T06:43:40.076Z,63.40
2018-11-10T06:46:08.443Z,61.60
2018-11-10T06:48:36.822Z,62.10
2018-11-10T06:51:05.294Z,62.50
2018-11-10T06:53:33.635Z,62.40
2018-11-10T06:56:01.992Z,62.00
2018-11-10T06:58:30.386Z,63.00
2018-11-10T07:00:58.713Z,63.50
2018-11-10T07:03:27.099Z,65.60
2018-11-10T07:05:55.429Z,65.30
2018-11-10T07:08:23.809Z,65.70
2018-11-10T07:10:52.187Z,65.90
2018-11-10T07:13:20.525Z,65.90
2018-11-10T07:15:48.915Z,65.80
2018-11-10T07:18:17.274Z,66.10
2018-11-10T07:20:45.619Z,68.20
2018-11-10T07:23:13.981Z,67.90
2018-11-10T07:25:42.358Z,68.10
2018-11-10T07:28:10.700Z,68.90
2018-11-10T07:30:39.067Z,69.10
2018-11-10T07:33:07.388Z,69.80
2018-11-10T07:35:35.780Z,70.10
2018-11-10T07:38:04.128Z,69.50
2018-11-10T07:40:32.538Z,70.20
2018-11-10T07:43:00.920Z,70.30
2018-11-10T07:45:29.272Z,70.20
2018-11-10T07:47:57.656Z,70.70
2018-11-10T07:50:26.032Z,71.00
2018-11-10T07:52:54.397Z,71.60
2018-11-10T07:55:22.757Z,71.70
2018-11-10T07:57:51.113Z,71.50
2018-11-10T08:00:19.564Z,71.10
2018-11-10T08:02:47.885Z,70.90
2018-11-10T08:05:16.796Z,71.10
2018-11-10T08:07:45.374Z,70.90
2018-11-10T08:10:14.338Z,71.20
2018-11-10T08:12:42.696Z,71.50
2018-11-10T08:15:13.043Z,71.70
2018-11-10T08:17:41.631Z,71.90
2018-11-10T08:20:10.738Z,72.10
2018-11-10T08:22:39.120Z,72.10
2018-11-10T08:25:09.191Z,71.60
2018-11-10T08:27:37.723Z,69.80
2018-11-10T08:30:08.049Z,70.30
2018-11-10T08:32:36.381Z,70.40
2018-11-10T08:35:05.113Z,70.70
2018-11-10T08:37:33.497Z,71.70
2018-11-10T08:40:01.845Z,72.10
2018-11-10T08:42:30.214Z,73.00
2018-11-10T08:44:58.604Z,73.00
2018-11-10T08:47:26.943Z,72.60
2018-11-10T08:49:55.328Z,72.50
2018-11-10T08:52:23.703Z,72.10
2018-11-10T08:54:52.092Z,71.80
2018-11-10T08:57:20.538Z,71.60
2018-11-10T08:59:49.540Z,71.40
2018-11-10T09:02:17.935Z,70.90
2018-11-10T09:04:46.356Z,71.00
2018-11-10T09:07:14.725Z,71.30
2018-11-10T09:09:43.129Z,71.20
2018-11-10T09:12:11.515Z,71.00
2018-11-10T09:14:39.914Z,71.20
2018-11-10T09:17:08.465Z,72.30
2018-11-10T09:19:36.843Z,72.60
2018-11-10T09:22:06.388Z,73.50
2018-11-10T09:24:34.843Z,73.10
2018-11-10T09:27:03.214Z,73.10
2018-11-10T09:29:31.576Z,73.80
2018-11-10T09:31:59.937Z,74.10
2018-11-10T09:34:28.287Z,73.50
2018-11-10T09:36:56.621Z,73.20
2018-11-10T09:39:25.007Z,72.70
2018-11-10T09:41:53.408Z,72.80
2018-11-10T09:44:21.957Z,72.90
2018-11-10T09:46:50.303Z,72.90
2018-11-10T09:49:18.651Z,73.00
2018-11-10T09:51:47.043Z,73.20
2018-11-10T09:54:15.417Z,73.30
2018-11-10T09:56:43.802Z,72.60
2018-11-10T09:59:12.150Z,72.10
2018-11-10T10:01:40.651Z,70.40
2018-11-10T10:04:09.002Z,70.20
2018-11-10T10:06:37.354Z,71.10
2018-11-10T10:09:08.341Z,71.40
2018-11-10T10:11:36.873Z,71.60
2018-11-10T10:14:05.894Z,72.30
2018-11-10T10:16:34.406Z,72.40
2018-11-10T10:19:02.623Z,72.20
2018-11-10T10:21:31.005Z,72.90
2018-11-10T10:23:59.387Z,73.20
2018-11-10T10:26:27.712Z,73.30
2018-11-10T10:28:56.114Z,73.00
2018-11-10T10:31:24.545Z,73.80
2018-11-10T10:33:53.134Z,73.10
2018-11-10T10:36:21.456Z,73.40
2018-11-10T10:38:49.846Z,73.70
2018-11-10T10:41:18.214Z,73.40
2018-11-10T10:43:46.560Z,73.00
2018-11-10T10:46:14.938Z,73.20
2018-11-10T10:48:43.359Z,71.60
2018-11-10T10:51:11.769Z,72.60
2018-11-10T10:53:40.166Z,72.80
2018-11-10T10:56:08.601Z,73.30
2018-11-10T10:58:36.992Z,73.30
2018-11-10T11:01:10.630Z,74.00
2018-11-10T11:03:44.387Z,73.70
2018-11-10T11:06:12.827Z,71.90
2018-11-10T11:08:41.270Z,73.00
2018-11-10T11:11:09.635Z,68.70
2018-11-10T11:13:37.981Z,71.10
2018-11-10T11:16:06.945Z,70.00
2018-11-10T11:18:35.315Z,68.90
2018-11-10T11:21:03.643Z,69.00
2018-11-10T11:23:31.997Z,69.50
2018-11-10T11:26:00.371Z,69.70
2018-11-10T11:28:28.747Z,69.20
2018-11-10T11:30:57.176Z,68.20
2018-11-10T11:33:26.129Z,69.50
2018-11-10T11:35:54.517Z,69.70
2018-11-10T11:38:22.862Z,69.30
2018-11-10T11:40:51.221Z,69.20
2018-11-10T11:43:19.594Z,67.40
2018-11-10T11:45:47.957Z,69.70
2018-11-10T11:48:16.306Z,68.30
2018-11-10T11:50:44.664Z,67.30
2018-11-10T11:53:13.124Z,67.40
2018-11-10T11:55:41.486Z,66.10
2018-11-10T11:58:10.132Z,67.60
2018-11-10T12:00:38.243Z,67.50
2018-11-10T12:03:06.628Z,66.80
2018-11-10T12:05:34.971Z,66.80
2018-11-10T12:08:03.405Z,68.10
2018-11-10T12:10:31.735Z,67.10
2018-11-10T12:13:00.108Z,66.00
2018-11-10T12:15:28.569Z,64.20
2018-11-10T12:17:56.814Z,66.00
2018-11-10T12:20:25.200Z,66.00
2018-11-10T12:22:53.596Z,65.90
2018-11-10T12:25:22.013Z,65.30
2018-11-10T12:27:50.397Z,65.90
2018-11-10T12:30:18.759Z,67.60
2018-11-10T12:32:47.161Z,67.10
2018-11-10T12:35:15.509Z,67.40
2018-11-10T12:37:43.943Z,67.90
2018-11-10T12:40:13.272Z,68.10
2018-11-10T12:42:41.730Z,68.00
2018-11-10T12:45:11.291Z,69.50
2018-11-10T12:47:40.238Z,67.10
2018-11-10T12:50:10.365Z,66.80
2018-11-10T12:52:38.694Z,66.80
2018-11-10T12:55:08.143Z,67.80
2018-11-10T12:57:36.512Z,68.60
2018-11-10T13:00:05.842Z,68.80
2018-11-10T13:02:34.206Z,67.50
2018-11-10T13:05:02.588Z,67.40
2018-11-10T13:07:30.927Z,69.50
2018-11-10T13:09:59.292Z,69.10
2018-11-10T13:12:27.627Z,70.00
2018-11-10T13:14:55.984Z,69.70
2018-11-10T13:17:24.402Z,70.60
2018-11-10T13:19:52.704Z,72.20
2018-11-10T13:22:21.030Z,73.10
2018-11-10T13:24:49.358Z,73.30
2018-11-10T13:27:17.748Z,74.60
2018-11-10T13:29:46.142Z,73.30
2018-11-10T13:32:14.506Z,74.60
2018-11-10T13:34:42.903Z,74.00
2018-11-10T13:37:11.257Z,74.60
2018-11-10T13:39:39.608Z,74.50
2018-11-10T13:42:07.980Z,74.50
2018-11-10T13:44:36.326Z,75.00
2018-11-10T13:47:04.960Z,74.50
2018-11-10T13:49:33.294Z,74.80
2018-11-10T13:52:02.020Z,76.20
2018-11-10T13:54:30.070Z,76.20
2018-11-10T13:56:58.437Z,76.10
2018-11-10T13:59:26.880Z,76.70
2018-11-10T14:01:55.132Z,77.10
2018-11-10T14:04:23.492Z,77.50
2018-11-10T14:06:51.858Z,77.30
2018-11-10T14:09:20.450Z,77.10
2018-11-10T14:11:48.817Z,76.60
2018-11-10T14:14:17.159Z,77.00
2018-11-10T14:16:45.467Z,77.20
2018-11-10T14:19:13.851Z,78.10
2018-11-10T14:21:42.161Z,78.40
2018-11-10T14:24:10.525Z,77.40
2018-11-10T14:26:38.858Z,76.70
2018-11-10T14:29:07.622Z,77.20
2018-11-10T14:31:36.125Z,77.20
2018-11-10T14:34:04.627Z,78.00
2018-11-10T14:36:32.968Z,78.20
2018-11-10T14:39:01.563Z,77.90
2018-11-10T14:41:29.892Z,77.60
2018-11-10T14:43:58.272Z,77.90
2018-11-10T14:46:26.592Z,77.40
2018-11-10T14:48:54.965Z,77.90
2018-11-10T14:51:23.326Z,77.60
2018-11-10T14:53:51.660Z,77.50
2018-11-10T14:56:20.068Z,77.70
2018-11-10T14:58:48.443Z,77.10
2018-11-10T15:01:16.810Z,77.00
2018-11-10T15:03:45.154Z,77.90
2018-11-10T15:06:13.492Z,76.60
2018-11-10T15:08:41.832Z,76.90
2018-11-10T15:11:10.388Z,76.60
2018-11-10T15:13:45.253Z,76.70
2018-11-10T15:16:13.621Z,76.60
2018-11-10T15:18:42.007Z,76.80
2018-11-10T15:21:10.381Z,77.40
2018-11-10T15:23:38.719Z,76.40
2018-11-10T15:26:07.078Z,76.70
2018-11-10T15:28:35.456Z,76.50
2018-11-10T15:31:03.804Z,76.00
2018-11-10T15:33:32.148Z,76.20
2018-11-10T15:36:00.492Z,76.10
2018-11-10T15:38:28.847Z,76.10
2018-11-10T15:40:57.337Z,76.10
2018-11-10T15:43:25.692Z,76.10
2018-11-10T15:45:54.050Z,75.70
2018-11-10T15:48:22.393Z,75.20
2018-11-10T15:50:50.739Z,75.00
2018-11-10T15:53:19.094Z,74.30
2018-11-10T15:55:47.469Z,74.80
2018-11-10T15:58:15.820Z,74.40
2018-11-10T16:00:44.129Z,74.40
2018-11-10T16:03:12.520Z,74.50
2018-11-10T16:05:40.835Z,74.40
2018-11-10T16:08:09.141Z,73.70
2018-11-10T16:10:37.463Z,74.40
2018-11-10T16:13:05.804Z,73.30
2018-11-10T16:15:34.137Z,74.10
2018-11-10T16:18:02.449Z,74.10
2018-11-10T16:20:30.806Z,73.50
2018-11-10T16:22:59.185Z,73.10
2018-11-10T16:25:27.530Z,73.80
2018-11-10T16:27:55.894Z,74.20
2018-11-10T16:30:24.242Z,74.90
2018-11-10T16:32:52.564Z,72.50
2018-11-10T16:35:21.057Z,72.10
2018-11-10T16:37:49.401Z,72.80
2018-11-10T16:40:18.900Z,72.30
2018-11-10T16:42:47.978Z,72.10
2018-11-10T16:45:17.170Z,72.30
2018-11-10T16:47:45.560Z,72.60
2018-11-10T16:50:13.912Z,72.70
2018-11-10T16:52:43.024Z,72.40
2018-11-10T16:55:11.452Z,73.50
2018-11-10T16:57:40.107Z,74.20
2018-11-10T17:00:11.378Z,74.00
2018-11-10T17:02:39.752Z,73.90
2018-11-10T17:05:08.216Z,73.50
2018-11-10T17:07:36.565Z,74.10
2018-11-10T17:10:06.144Z,74.10
2018-11-10T17:12:34.490Z,73.20
2018-11-10T17:15:02.838Z,71.60
2018-11-10T17:17:31.201Z,73.80
2018-11-10T17:19:59.550Z,73.90
2018-11-10T17:22:27.964Z,74.50
2018-11-10T17:24:56.308Z,75.70
2018-11-10T17:27:24.722Z,76.40
2018-11-10T17:29:53.077Z,74.90
2018-11-10T17:32:21.624Z,74.70
2018-11-10T17:34:49.958Z,74.90
2018-11-10T17:37:18.431Z,74.60
2018-11-10T17:39:46.967Z,74.60
2018-11-10T17:42:15.278Z,74.60
2018-11-10T17:44:43.819Z,74.60
2018-11-10T17:47:12.160Z,75.30
2018-11-10T17:49:40.536Z,74.90
2018-11-10T17:52:09.039Z,75.50
2018-11-10T17:54:37.346Z,75.10
2018-11-10T17:57:05.841Z,75.00
2018-11-10T17:59:34.192Z,75.20
2018-11-10T18:02:02.640Z,75.20
2018-11-10T18:04:30.985Z,74.80
2018-11-10T18:06:59.331Z,75.70
2018-11-10T18:09:27.685Z,74.40
2018-11-10T18:11:56.034Z,74.70
2018-11-10T18:14:24.528Z,74.60
2018-11-10T18:16:52.911Z,74.80
2018-11-10T18:19:21.257Z,74.80
2018-11-10T18:21:49.613Z,73.70
2018-11-10T18:24:18.000Z,73.70
2018-11-10T18:26:46.376Z,74.40
2018-11-10T18:29:14.753Z,74.60
2018-11-10T18:31:43.098Z,74.90
2018-11-10T18:34:11.488Z,75.00
2018-11-10T18:36:39.841Z,74.90
2018-11-10T18:39:09.547Z,75.30
2018-11-10T18:41:37.910Z,75.60
2018-11-10T18:44:06.383Z,76.40
2018-11-10T18:46:34.775Z,76.60
2018-11-10T18:49:03.217Z,76.70
2018-11-10T18:51:31.614Z,77.00
2018-11-10T18:53:59.972Z,76.70
2018-11-10T18:56:28.331Z,76.50
2018-11-10T18:58:56.759Z,76.70
2018-11-10T19:01:25.139Z,76.50
2018-11-10T19:03:53.482Z,76.40
2018-11-10T19:06:21.915Z,75.70
2018-11-10T19:08:50.252Z,76.20
2018-11-10T19:11:18.597Z,76.20
2018-11-10T19:13:46.960Z,76.70
2018-11-10T19:16:15.295Z,76.90
2018-11-10T19:18:43.715Z,76.40
2018-11-10T19:21:12.054Z,76.50
2018-11-10T19:23:40.406Z,76.40
2018-11-10T19:26:08.768Z,76.50
2018-11-10T19:28:37.173Z,76.30
2018-11-10T19:31:05.576Z,76.40
2018-11-10T19:33:33.931Z,75.80
2018-11-10T19:36:02.297Z,76.20
2018-11-10T19:38:30.659Z,75.80
2018-11-10T19:40:59.087Z,75.40
2018-11-10T19:43:27.488Z,75.20
2018-11-10T19:45:55.838Z,75.20
2018-11-10T19:48:24.261Z,75.40
2018-11-10T19:50:52.716Z,75.40
2018-11-10T19:53:20.935Z,75.50
2018-11-10T19:55:49.292Z,75.90
2018-11-10T19:58:17.625Z,76.20
2018-11-10T20:00:46.041Z,76.50
2018-11-10T20:03:14.357Z,76.80
2018-11-10T20:05:42.853Z,77.20
2018-11-10T20:08:11.213Z,77.60
2018-11-10T20:10:39.561Z,77.10
2018-11-10T20:13:08.026Z,76.90
2018-11-10T20:15:36.324Z,77.10
2018-11-10T20:18:04.705Z,77.30
2018-11-10T20:20:33.051Z,77.40
2018-11-10T20:23:01.398Z,77.40
2018-11-10T20:25:29.785Z,77.50
2018-11-10T20:27:58.133Z,77.80
2018-11-10T20:30:26.481Z,77.00
2018-11-10T20:32:54.923Z,76.90
2018-11-10T20:35:23.232Z,76.80
2018-11-10T20:37:51.616Z,77.40
2018-11-10T20:40:19.959Z,77.60
2018-11-10T20:42:48.353Z,78.00
2018-11-10T20:45:18.471Z,78.30
2018-11-10T20:47:46.930Z,78.40
2018-11-10T20:50:15.903Z,78.60
2018-11-10T20:52:44.265Z,78.80
2018-11-10T20:55:13.193Z,79.10
2018-11-10T20:57:41.567Z,79.20
2018-11-10T21:00:12.203Z,79.20
2018-11-10T21:02:41.409Z,79.20
2018-11-10T21:05:10.977Z,79.10
2018-11-10T21:07:39.329Z,79.40
2018-11-10T21:10:10.112Z,79.40
2018-11-10T21:12:38.544Z,79.60
2018-11-10T21:15:07.557Z,79.80
2018-11-10T21:17:36.142Z,79.90
2018-11-10T21:20:04.666Z,79.20
2018-11-10T21:22:34.783Z,78.30
2018-11-10T21:25:03.188Z,78.10
2018-11-10T21:27:31.557Z,78.00
2018-11-10T21:29:59.908Z,78.10
2018-11-10T21:32:28.237Z,78.20
2018-11-10T21:34:56.570Z,78.70
2018-11-10T21:37:24.939Z,78.60
2018-11-10T21:39:53.311Z,79.30
2018-11-10T21:42:21.691Z,75.10
2018-11-10T21:44:50.054Z,75.50
2018-11-10T21:47:18.524Z,75.10
2018-11-10T21:49:46.924Z,75.70
2018-11-10T21:52:15.278Z,76.70
2018-11-10T21:54:43.626Z,77.50
2018-11-10T21:57:11.971Z,77.40
2018-11-10T21:59:40.328Z,77.90
2018-11-10T22:02:08.665Z,77.80
2018-11-10T22:04:37.032Z,76.70
2018-11-10T22:07:05.379Z,77.30
2018-11-10T22:09:33.994Z,77.70
2018-11-10T22:12:02.123Z,78.20
2018-11-10T22:14:30.513Z,78.70
2018-11-10T22:16:59.447Z,78.80
2018-11-10T22:19:27.790Z,79.20
2018-11-10T22:21:56.147Z,79.70
2018-11-10T22:24:24.562Z,80.00
2018-11-10T22:26:52.878Z,80.30
2018-11-10T22:29:21.255Z,79.50
2018-11-10T22:31:49.604Z,79.20
2018-11-10T22:34:17.940Z,78.90
2018-11-10T22:36:46.308Z,79.00
2018-11-10T22:39:14.670Z,78.80
2018-11-10T22:41:43.038Z,79.30
2018-11-10T22:44:11.377Z,79.40
2018-11-10T22:46:39.728Z,79.50
2018-11-10T22:49:08.113Z,79.60
2018-11-10T22:51:36.465Z,79.70
2018-11-10T22:54:05.095Z,80.30
2018-11-10T22:56:33.445Z,79.70
2018-11-10T22:59:01.786Z,79.70
2018-11-10T23:01:30.983Z,79.60
2018-11-10T23:03:59.346Z,79.60
2018-11-10T23:06:27.751Z,79.20
2018-11-10T23:08:56.087Z,79.10
2018-11-10T23:11:24.656Z,79.10
2018-11-10T23:13:53.001Z,78.80
2018-11-10T23:16:21.351Z,78.60
2018-11-10T23:18:49.685Z,78.80
2018-11-10T23:21:18.029Z,78.60
2018-11-10T23:23:46.335Z,78.90
2018-11-10T23:26:14.668Z,79.00
2018-11-10T23:28:43.014Z,79.30
2018-11-10T23:31:11.375Z,79.50
2018-11-10T23:33:39.751Z,79.70
2018-11-10T23:36:08.132Z,79.50
2018-11-10T23:38:36.488Z,79.10
2018-11-10T23:41:05.229Z,79.30
2018-11-10T23:43:33.613Z,80.00
2018-11-10T23:46:01.989Z,80.50
2018-11-10T23:48:30.323Z,80.90
2018-11-10T23:50:58.690Z,81.50
2018-11-10T23:53:27.040Z,81.00
2018-11-10T23:55:55.377Z,80.90
2018-11-10T23:58:23.713Z,80.90
